createdAt,value
2018-08-17T00:00:22.012Z,1001.34
2018-08-17T00:01:21.991Z,1001.38
2018-08-17T00:02:21.968Z,1001.39
2018-08-17T00:03:21.963Z,1001.38
2018-08-17T00:04:21.921Z,1001.38
2018-08-17T00:05:21.951Z,1001.33
2018-08-17T00:06:21.885Z,1001.34
2018-08-17T00:07:21.845Z,1001.34
2018-08-17T00:08:21.820Z,1001.34
2018-08-17T00:09:21.796Z,1001.36
2018-08-17T00:10:21.772Z,1001.31
2018-08-17T00:11:21.746Z,1001.31
2018-08-17T00:12:21.725Z,1001.33
2018-08-17T00:13:21.706Z,1001.33
2018-08-17T00:14:21.672Z,1001.31
2018-08-17T00:15:21.645Z,1001.29
2018-08-17T00:16:21.631Z,1001.30
2018-08-17T00:17:21.607Z,1001.30
2018-08-17T00:18:21.588Z,1001.28
2018-08-17T00:19:21.555Z,1001.28
2018-08-17T00:20:21.535Z,1001.23
2018-08-17T00:21:21.511Z,1001.22
2018-08-17T00:22:21.486Z,1001.21
2018-08-17T00:23:21.461Z,1001.22
2018-08-17T00:24:21.429Z,1001.20
2018-08-17T00:25:21.407Z,1001.18
2018-08-17T00:26:21.385Z,1001.16
2018-08-17T00:27:21.359Z,1001.14
2018-08-17T00:28:21.398Z,1001.12
2018-08-17T00:29:21.312Z,1001.12
2018-08-17T00:30:21.285Z,1001.10
2018-08-17T00:31:21.266Z,1001.10
2018-08-17T00:32:21.231Z,1001.09
2018-08-17T00:33:21.218Z,1001.09
2018-08-17T00:34:21.184Z,1001.05
2018-08-17T00:35:21.161Z,1001.09
2018-08-17T00:36:21.142Z,1001.13
2018-08-17T00:37:21.117Z,1001.11
2018-08-17T00:38:21.090Z,1001.13
2018-08-17T00:39:21.066Z,1001.10
2018-08-17T00:40:21.049Z,1001.15
2018-08-17T00:41:21.011Z,1001.11
2018-08-17T00:42:20.996Z,1001.09
2018-08-17T00:43:21.005Z,1001.06
2018-08-17T00:44:20.938Z,1001.04
2018-08-17T00:45:20.916Z,1001.01
2018-08-17T00:46:20.916Z,1001.08
2018-08-17T00:47:20.871Z,1001.04
2018-08-17T00:48:20.847Z,1001.00
2018-08-17T00:49:20.817Z,1000.98
2018-08-17T00:50:20.800Z,1000.99
2018-08-17T00:51:20.767Z,1000.97
2018-08-17T00:52:20.759Z,1000.99
2018-08-17T00:53:20.724Z,1001.01
2018-08-17T00:54:20.697Z,1001.01
2018-08-17T00:55:20.671Z,1001.01
2018-08-17T00:56:20.653Z,1001.04
2018-08-17T00:57:20.629Z,1001.04
2018-08-17T00:58:20.607Z,1001.07
2018-08-17T00:59:20.572Z,1001.11
2018-08-17T01:00:20.556Z,1001.09
2018-08-17T01:01:20.528Z,1001.14
2018-08-17T01:02:20.504Z,1001.18
2018-08-17T01:03:20.476Z,1001.18
2018-08-17T01:04:20.456Z,1001.21
2018-08-17T01:05:20.438Z,1001.22
2018-08-17T01:06:20.404Z,1001.21
2018-08-17T01:07:20.385Z,1001.24
2018-08-17T01:08:20.380Z,1001.23
2018-08-17T01:09:20.334Z,1001.27
2018-08-17T01:10:20.309Z,1001.30
2018-08-17T01:11:20.285Z,1001.27
2018-08-17T01:12:20.264Z,1001.23
2018-08-17T01:13:20.235Z,1001.23
2018-08-17T01:14:20.221Z,1001.27
2018-08-17T01:15:20.186Z,1001.28
2018-08-17T01:16:20.159Z,1001.26
2018-08-17T01:17:20.143Z,1001.31
2018-08-17T01:18:20.117Z,1001.30
2018-08-17T01:19:20.086Z,1001.29
2018-08-17T01:20:20.064Z,1001.26
2018-08-17T01:21:20.042Z,1001.28
2018-08-17T01:22:20.012Z,1001.27
2018-08-17T01:23:19.997Z,1001.29
2018-08-17T01:24:19.963Z,1001.28
2018-08-17T01:25:19.940Z,1001.28
2018-08-17T01:26:19.942Z,1001.29
2018-08-17T01:27:19.893Z,1001.34
2018-08-17T01:28:19.873Z,1001.34
2018-08-17T01:29:19.839Z,1001.32
2018-08-17T01:30:19.819Z,1001.34
2018-08-17T01:31:19.799Z,1001.32
2018-08-17T01:32:19.764Z,1001.33
2018-08-17T01:33:19.743Z,1001.31
2018-08-17T01:34:19.724Z,1001.30
2018-08-17T01:35:19.698Z,1001.31
2018-08-17T01:36:19.681Z,1001.35
2018-08-17T01:37:19.653Z,1001.39
2018-08-17T01:38:19.622Z,1001.40
2018-08-17T01:39:19.601Z,1001.43
2018-08-17T01:40:19.573Z,1001.45
2018-08-17T01:41:19.546Z,1001.49
2018-08-17T01:42:19.531Z,1001.48
2018-08-17T01:43:19.499Z,1001.48
2018-08-17T01:44:19.481Z,1001.49
2018-08-17T01:45:19.451Z,1001.50
2018-08-17T01:46:19.426Z,1001.49
2018-08-17T01:47:19.411Z,1001.52
2018-08-17T01:48:19.382Z,1001.56
2018-08-17T01:49:19.353Z,1001.57
2018-08-17T01:50:19.333Z,1001.58
2018-08-17T01:51:19.310Z,1001.55
2018-08-17T01:52:19.304Z,1001.59
2018-08-17T01:53:19.342Z,1001.60
2018-08-17T01:54:19.311Z,1001.63
2018-08-17T01:55:19.228Z,1001.64
2018-08-17T01:56:19.301Z,1001.68
2018-08-17T01:57:19.179Z,1001.70
2018-08-17T01:58:19.201Z,1001.77
2018-08-17T01:59:19.156Z,1001.77
2018-08-17T02:00:19.184Z,1001.81
2018-08-17T02:01:19.060Z,1001.85
2018-08-17T02:02:19.037Z,1001.85
2018-08-17T02:03:19.007Z,1001.95
2018-08-17T02:04:18.987Z,1001.94
2018-08-17T02:05:18.974Z,1001.98
2018-08-17T02:06:18.938Z,1002.00
2018-08-17T02:07:18.912Z,1001.97
2018-08-17T02:08:18.896Z,1002.07
2018-08-17T02:09:18.871Z,1002.05
2018-08-17T02:10:18.841Z,1002.04
2018-08-17T02:11:18.818Z,1002.04
2018-08-17T02:12:18.787Z,1002.01
2018-08-17T02:13:18.771Z,1001.96
2018-08-17T02:14:18.741Z,1002.02
2018-08-17T02:15:18.713Z,1001.98
2018-08-17T02:16:18.700Z,1001.95
2018-08-17T02:17:18.663Z,1002.00
2018-08-17T02:18:18.649Z,1002.04
2018-08-17T02:19:18.615Z,1002.11
2018-08-17T02:20:18.600Z,1002.09
2018-08-17T02:21:18.565Z,1002.11
2018-08-17T02:22:18.544Z,1002.14
2018-08-17T02:23:18.513Z,1002.17
2018-08-17T02:24:18.525Z,1002.13
2018-08-17T02:25:18.465Z,1002.15
2018-08-17T02:26:18.449Z,1002.21
2018-08-17T02:27:18.424Z,1002.17
2018-08-17T02:28:18.401Z,1002.18
2018-08-17T02:29:18.369Z,1002.16
2018-08-17T02:30:18.342Z,1002.20
2018-08-17T02:31:18.322Z,1002.16
2018-08-17T02:32:18.288Z,1002.16
2018-08-17T02:33:18.276Z,1002.14
2018-08-17T02:34:18.253Z,1002.17
2018-08-17T02:35:18.216Z,1002.12
2018-08-17T02:36:18.215Z,1002.20
2018-08-17T02:37:18.163Z,1002.20
2018-08-17T02:38:18.146Z,1002.22
2018-08-17T02:39:18.116Z,1002.29
2018-08-17T02:40:18.088Z,1002.37
2018-08-17T02:41:18.067Z,1002.36
2018-08-17T02:42:18.045Z,1002.47
2018-08-17T02:43:18.021Z,1002.41
2018-08-17T02:44:17.988Z,1002.50
2018-08-17T02:45:17.974Z,1002.47
2018-08-17T02:46:17.942Z,1002.40
2018-08-17T02:47:17.919Z,1002.48
2018-08-17T02:48:17.890Z,1002.49
2018-08-17T02:49:17.875Z,1002.52
2018-08-17T02:50:17.842Z,1002.44
2018-08-17T02:51:17.822Z,1002.52
2018-08-17T02:52:17.793Z,1002.52
2018-08-17T02:53:17.765Z,1002.54
2018-08-17T02:54:17.739Z,1002.55
2018-08-17T02:55:17.712Z,1002.54
2018-08-17T02:56:17.687Z,1002.60
2018-08-17T02:57:17.667Z,1002.58
2018-08-17T02:58:17.639Z,1002.64
2018-08-17T02:59:17.618Z,1002.62
2018-08-17T03:00:17.589Z,1002.67
2018-08-17T03:01:17.565Z,1002.57
2018-08-17T03:02:17.553Z,1002.62
2018-08-17T03:03:17.513Z,1002.53
2018-08-17T03:04:17.490Z,1002.53
2018-08-17T03:05:17.488Z,1002.49
2018-08-17T03:06:17.436Z,1002.51
2018-08-17T03:07:17.408Z,1002.51
2018-08-17T03:08:17.394Z,1002.54
2018-08-17T03:09:17.365Z,1002.56
2018-08-17T03:10:17.341Z,1002.60
2018-08-17T03:11:17.310Z,1002.60
2018-08-17T03:12:17.293Z,1002.56
2018-08-17T03:13:17.266Z,1002.58
2018-08-17T03:14:17.234Z,1002.50
2018-08-17T03:15:17.211Z,1002.57
2018-08-17T03:16:17.191Z,1002.53
2018-08-17T03:17:17.168Z,1002.53
2018-08-17T03:18:17.134Z,1002.54
2018-08-17T03:19:17.114Z,1002.56
2018-08-17T03:20:17.100Z,1002.48
2018-08-17T03:21:17.060Z,1002.44
2018-08-17T03:22:17.041Z,1002.38
2018-08-17T03:23:17.008Z,1002.33
2018-08-17T03:24:16.987Z,1002.37
2018-08-17T03:25:16.959Z,1002.32
2018-08-17T03:26:16.929Z,1002.41
2018-08-17T03:27:16.903Z,1002.46
2018-08-17T03:28:16.886Z,1002.44
2018-08-17T03:29:16.852Z,1002.46
2018-08-17T03:30:16.843Z,1002.51
2018-08-17T03:31:16.803Z,1002.44
2018-08-17T03:32:16.790Z,1002.51
2018-08-17T03:33:16.752Z,1002.53
2018-08-17T03:34:16.736Z,1002.41
2018-08-17T03:35:16.705Z,1002.40
2018-08-17T03:36:16.682Z,1002.38
2018-08-17T03:37:16.695Z,1002.56
2018-08-17T03:38:16.698Z,1002.35
2018-08-17T03:39:16.602Z,1002.38
2018-08-17T03:40:16.599Z,1002.37
2018-08-17T03:41:16.566Z,1002.35
2018-08-17T03:42:16.528Z,1002.33
2018-08-17T03:43:16.512Z,1002.34
2018-08-17T03:44:16.475Z,1002.34
2018-08-17T03:45:16.455Z,1002.26
2018-08-17T03:46:16.429Z,1002.35
2018-08-17T03:47:16.406Z,1002.36
2018-08-17T03:48:16.373Z,1002.38
2018-08-17T03:49:16.364Z,1002.40
2018-08-17T03:50:16.324Z,1002.40
2018-08-17T03:51:16.302Z,1002.41
2018-08-17T03:52:16.275Z,1002.36
2018-08-17T03:53:16.256Z,1002.39
2018-08-17T03:54:16.223Z,1002.37
2018-08-17T03:55:16.217Z,1002.36
2018-08-17T03:56:16.168Z,1002.39
2018-08-17T03:57:16.147Z,1002.45
2018-08-17T03:58:16.124Z,1002.46
2018-08-17T03:59:16.092Z,1002.48
2018-08-17T04:00:16.077Z,1002.62
2018-08-17T04:01:16.046Z,1002.50
2018-08-17T04:02:16.041Z,1002.55
2018-08-17T04:03:15.997Z,1002.54
2018-08-17T04:04:15.970Z,1002.55
2018-08-17T04:05:15.942Z,1002.50
2018-08-17T04:06:15.925Z,1002.56
2018-08-17T04:07:15.897Z,1002.50
2018-08-17T04:08:15.874Z,1002.55
2018-08-17T04:09:15.852Z,1002.58
2018-08-17T04:10:15.817Z,1002.63
2018-08-17T04:11:15.794Z,1002.71
2018-08-17T04:12:15.767Z,1002.66
2018-08-17T04:13:15.739Z,1002.67
2018-08-17T04:14:15.722Z,1002.71
2018-08-17T04:15:15.693Z,1002.67
2018-08-17T04:16:15.670Z,1002.68
2018-08-17T04:17:15.640Z,1002.69
2018-08-17T04:18:15.621Z,1002.68
2018-08-17T04:19:15.608Z,1002.71
2018-08-17T04:20:15.561Z,1002.74
2018-08-17T04:21:15.542Z,1002.76
2018-08-17T04:22:15.520Z,1002.71
2018-08-17T04:23:15.501Z,1002.71
2018-08-17T04:24:15.470Z,1002.79
2018-08-17T04:25:15.442Z,1002.80
2018-08-17T04:26:15.417Z,1002.78
2018-08-17T04:27:15.393Z,1002.76
2018-08-17T04:28:15.365Z,1002.71
2018-08-17T04:29:15.345Z,1002.74
2018-08-17T04:30:15.311Z,1002.74
2018-08-17T04:31:15.293Z,1002.81
2018-08-17T04:32:15.261Z,1002.91
2018-08-17T04:33:15.240Z,1002.91
2018-08-17T04:34:15.210Z,1002.84
2018-08-17T04:35:15.205Z,1002.88
2018-08-17T04:36:15.160Z,1002.88
2018-08-17T04:37:15.138Z,1002.95
2018-08-17T04:38:15.113Z,1002.94
2018-08-17T04:39:15.093Z,1002.95
2018-08-17T04:40:15.057Z,1002.94
2018-08-17T04:41:15.040Z,1002.96
2018-08-17T04:42:15.006Z,1002.94
2018-08-17T04:43:14.983Z,1002.91
2018-08-17T04:44:14.964Z,1002.90
2018-08-17T04:45:14.931Z,1002.92
2018-08-17T04:46:14.917Z,1002.94
2018-08-17T04:47:14.887Z,1002.94
2018-08-17T04:48:14.860Z,1003.00
2018-08-17T04:49:14.845Z,1003.05
2018-08-17T04:50:14.809Z,1003.06
2018-08-17T04:51:14.781Z,1003.07
2018-08-17T04:52:14.760Z,1003.13
2018-08-17T04:53:14.731Z,1003.09
2018-08-17T04:54:14.709Z,1003.17
2018-08-17T04:55:14.678Z,1003.21
2018-08-17T04:56:14.664Z,1003.26
2018-08-17T04:57:14.630Z,1003.28
2018-08-17T04:58:14.611Z,1003.29
2018-08-17T04:59:14.586Z,1003.31
2018-08-17T05:00:14.572Z,1003.29
2018-08-17T05:01:14.528Z,1003.32
2018-08-17T05:02:14.511Z,1003.38
2018-08-17T05:03:14.504Z,1003.38
2018-08-17T05:04:14.458Z,1003.39
2018-08-17T05:05:14.426Z,1003.43
2018-08-17T05:06:14.411Z,1003.42
2018-08-17T05:07:14.379Z,1003.42
2018-08-17T05:08:14.358Z,1003.44
2018-08-17T05:09:14.332Z,1003.48
2018-08-17T05:10:14.303Z,1003.47
2018-08-17T05:11:14.282Z,1003.54
2018-08-17T05:12:14.250Z,1003.53
2018-08-17T05:13:14.228Z,1003.61
2018-08-17T05:14:14.209Z,1003.65
2018-08-17T05:15:14.211Z,1003.64
2018-08-17T05:16:14.151Z,1003.73
2018-08-17T05:17:14.125Z,1003.83
2018-08-17T05:18:14.107Z,1003.86
2018-08-17T05:19:14.078Z,1003.92
2018-08-17T05:20:14.055Z,1003.93
2018-08-17T05:21:14.026Z,1003.95
2018-08-17T05:22:14.005Z,1003.96
2018-08-17T05:23:14.035Z,1004.01
2018-08-17T05:24:13.948Z,1004.04
2018-08-17T05:25:13.930Z,1004.05
2018-08-17T05:26:13.904Z,1004.01
2018-08-17T05:27:13.873Z,1003.99
2018-08-17T05:28:13.856Z,1004.01
2018-08-17T05:29:13.829Z,1004.08
2018-08-17T05:30:13.799Z,1004.15
2018-08-17T05:31:13.790Z,1004.16
2018-08-17T05:32:13.748Z,1004.19
2018-08-17T05:33:13.730Z,1004.25
2018-08-17T05:34:13.710Z,1004.20
2018-08-17T05:35:13.678Z,1004.20
2018-08-17T05:36:13.648Z,1004.25
2018-08-17T05:37:13.628Z,1004.13
2018-08-17T05:38:13.599Z,1004.08
2018-08-17T05:39:13.569Z,1004.03
2018-08-17T05:40:13.555Z,1004.05
2018-08-17T05:41:13.560Z,1004.01
2018-08-17T05:42:13.508Z,1003.95
2018-08-17T05:43:13.476Z,1003.91
2018-08-17T05:44:13.450Z,1003.91
2018-08-17T05:45:13.468Z,1003.92
2018-08-17T05:46:13.401Z,1003.97
2018-08-17T05:47:13.368Z,1003.93
2018-08-17T05:48:13.362Z,1003.95
2018-08-17T05:49:13.330Z,1003.97
2018-08-17T05:50:13.789Z,1003.96
2018-08-17T05:51:13.271Z,1003.97
2018-08-17T05:52:13.250Z,1003.97
2018-08-17T05:53:13.223Z,1004.00
2018-08-17T05:54:13.198Z,1003.99
2018-08-17T05:55:13.189Z,1003.97
2018-08-17T05:56:13.147Z,1003.98
2018-08-17T05:57:13.121Z,1004.04
2018-08-17T05:58:13.101Z,1004.10
2018-08-17T05:59:13.072Z,1004.11
2018-08-17T06:00:13.047Z,1004.13
2018-08-17T06:01:13.016Z,1004.12
2018-08-17T06:02:13.001Z,1004.12
2018-08-17T06:03:12.965Z,1004.16
2018-08-17T06:04:12.948Z,1004.18
2018-08-17T06:05:12.920Z,1004.17
2018-08-17T06:06:12.893Z,1004.15
2018-08-17T06:07:12.867Z,1004.14
2018-08-17T06:08:12.842Z,1004.09
2018-08-17T06:09:12.827Z,1004.05
2018-08-17T06:10:12.796Z,1004.11
2018-08-17T06:11:12.904Z,1004.20
2018-08-17T06:12:12.747Z,1004.25
2018-08-17T06:13:12.716Z,1004.34
2018-08-17T06:14:12.694Z,1004.38
2018-08-17T06:15:12.661Z,1004.36
2018-08-17T06:16:12.653Z,1004.42
2018-08-17T06:17:12.612Z,1004.45
2018-08-17T06:18:12.598Z,1004.50
2018-08-17T06:19:12.619Z,1004.61
2018-08-17T06:20:12.534Z,1004.60
2018-08-17T06:21:12.515Z,1004.66
2018-08-17T06:22:12.486Z,1004.74
2018-08-17T06:23:12.467Z,1004.84
2018-08-17T06:24:12.436Z,1004.87
2018-08-17T06:25:12.410Z,1004.85
2018-08-17T06:26:12.393Z,1004.88
2018-08-17T06:27:12.362Z,1004.84
2018-08-17T06:28:12.334Z,1004.80
2018-08-17T06:29:12.313Z,1004.76
2018-08-17T06:30:12.283Z,1004.72
2018-08-17T06:31:12.265Z,1004.68
2018-08-17T06:32:12.231Z,1004.59
2018-08-17T06:33:12.212Z,1004.57
2018-08-17T06:34:12.181Z,1004.55
2018-08-17T06:35:12.168Z,1004.55
2018-08-17T06:36:12.141Z,1004.57
2018-08-17T06:37:12.170Z,1004.60
2018-08-17T06:38:12.081Z,1004.60
2018-08-17T06:39:12.055Z,1004.59
2018-08-17T06:40:12.031Z,1004.56
2018-08-17T06:41:12.008Z,1004.54
2018-08-17T06:42:11.976Z,1004.49
2018-08-17T06:43:11.957Z,1004.55
2018-08-17T06:44:11.929Z,1004.58
2018-08-17T06:45:11.913Z,1004.59
2018-08-17T06:46:11.880Z,1004.60
2018-08-17T06:47:11.848Z,1004.60
2018-08-17T06:48:11.831Z,1004.63
2018-08-17T06:49:11.805Z,1004.59
2018-08-17T06:50:11.774Z,1004.53
2018-08-17T06:51:11.846Z,1004.48
2018-08-17T06:52:11.726Z,1004.46
2018-08-17T06:53:11.699Z,1004.47
2018-08-17T06:54:11.670Z,1004.49
2018-08-17T06:55:11.648Z,1004.54
2018-08-17T06:56:11.627Z,1004.48
2018-08-17T06:57:11.661Z,1004.44
2018-08-17T06:58:11.571Z,1004.40
2018-08-17T06:59:11.542Z,1004.46
2018-08-17T07:00:11.543Z,1004.48
2018-08-17T07:01:11.496Z,1004.43
2018-08-17T07:02:11.468Z,1004.39
2018-08-17T07:03:11.448Z,1004.37
2018-08-17T07:04:11.416Z,1004.39
2018-08-17T07:05:11.418Z,1004.42
2018-08-17T07:06:11.370Z,1004.43
2018-08-17T07:07:11.337Z,1004.38
2018-08-17T07:08:11.315Z,1004.34
2018-08-17T07:09:11.337Z,1004.31
2018-08-17T07:10:11.268Z,1004.30
2018-08-17T07:11:11.247Z,1004.22
2018-08-17T07:12:11.217Z,1004.14
2018-08-17T07:13:11.188Z,1004.10
2018-08-17T07:14:11.166Z,1004.03
2018-08-17T07:15:11.147Z,1004.10
2018-08-17T07:16:11.114Z,1004.15
2018-08-17T07:17:11.099Z,1004.14
2018-08-17T07:18:11.057Z,1004.09
2018-08-17T07:19:11.038Z,1004.01
2018-08-17T07:20:11.012Z,1003.96
2018-08-17T07:21:10.989Z,1003.96
2018-08-17T07:22:10.960Z,1003.93
2018-08-17T07:23:10.934Z,1003.93
2018-08-17T07:24:10.908Z,1003.92
2018-08-17T07:25:10.892Z,1003.88
2018-08-17T07:26:10.858Z,1003.90
2018-08-17T07:27:10.835Z,1003.89
2018-08-17T07:28:10.860Z,1003.85
2018-08-17T07:29:10.780Z,1003.82
2018-08-17T07:30:10.763Z,1003.74
2018-08-17T07:31:10.746Z,1003.71
2018-08-17T07:32:10.707Z,1003.78
2018-08-17T07:33:10.683Z,1003.80
2018-08-17T07:34:10.656Z,1003.86
2018-08-17T07:35:10.634Z,1003.88
2018-08-17T07:36:10.601Z,1003.82
2018-08-17T07:37:10.593Z,1003.76
2018-08-17T07:38:10.550Z,1003.76
2018-08-17T07:39:10.530Z,1003.73
2018-08-17T07:40:10.505Z,1003.80
2018-08-17T07:41:10.483Z,1003.82
2018-08-17T07:42:10.455Z,1003.86
2018-08-17T07:43:10.428Z,1003.86
2018-08-17T07:44:10.404Z,1003.85
2018-08-17T07:45:10.385Z,1003.91
2018-08-17T07:46:10.355Z,1003.90
2018-08-17T07:47:10.376Z,1003.89
2018-08-17T07:48:10.411Z,1003.94
2018-08-17T07:49:10.286Z,1003.94
2018-08-17T07:50:10.278Z,1003.90
2018-08-17T07:51:10.227Z,1003.88
2018-08-17T07:52:10.201Z,1003.91
2018-08-17T07:53:10.181Z,1003.85
2018-08-17T07:54:10.154Z,1003.84
2018-08-17T07:55:10.124Z,1003.81
2018-08-17T07:56:10.101Z,1003.77
2018-08-17T07:57:10.073Z,1003.76
2018-08-17T07:58:10.054Z,1003.70
2018-08-17T07:59:10.113Z,1003.67
2018-08-17T08:00:10.004Z,1003.61
2018-08-17T08:01:09.975Z,1003.67
2018-08-17T08:02:09.974Z,1003.69
2018-08-17T08:03:09.928Z,1003.70
2018-08-17T08:04:09.909Z,1003.79
2018-08-17T08:05:09.874Z,1003.79
2018-08-17T08:06:09.847Z,1003.86
2018-08-17T08:07:09.820Z,1003.87
2018-08-17T08:08:09.799Z,1003.90
2018-08-17T08:09:09.770Z,1003.93
2018-08-17T08:10:09.747Z,1003.92
2018-08-17T08:11:09.792Z,1003.93
2018-08-17T08:12:09.701Z,1003.93
2018-08-17T08:13:09.675Z,1003.96
2018-08-17T08:14:09.644Z,1004.07
2018-08-17T08:15:09.627Z,1004.11
2018-08-17T08:16:09.595Z,1004.09
2018-08-17T08:17:09.577Z,1004.02
2018-08-17T08:18:09.547Z,1004.07
2018-08-17T08:19:09.518Z,1004.12
2018-08-17T08:20:09.502Z,1004.08
2018-08-17T08:21:09.476Z,1004.11
2018-08-17T08:22:09.448Z,1004.08
2018-08-17T08:23:09.421Z,1004.10
2018-08-17T08:24:09.400Z,1004.13
2018-08-17T08:25:09.366Z,1004.13
2018-08-17T08:26:09.405Z,1004.16
2018-08-17T08:27:09.322Z,1004.18
2018-08-17T08:28:09.296Z,1004.17
2018-08-17T08:29:09.281Z,1004.17
2018-08-17T08:30:09.249Z,1004.20
2018-08-17T08:31:09.217Z,1004.25
2018-08-17T08:32:09.205Z,1004.27
2018-08-17T08:33:09.170Z,1004.31
2018-08-17T08:34:09.158Z,1004.35
2018-08-17T08:35:09.126Z,1004.40
2018-08-17T08:36:09.101Z,1004.45
2018-08-17T08:37:09.067Z,1004.46
2018-08-17T08:38:09.054Z,1004.55
2018-08-17T08:39:09.027Z,1004.60
2018-08-17T08:40:08.996Z,1004.65
2018-08-17T08:41:08.972Z,1004.74
2018-08-17T08:42:08.949Z,1004.79
2018-08-17T08:43:08.954Z,1004.79
2018-08-17T08:44:08.898Z,1004.84
2018-08-17T08:45:08.871Z,1004.82
2018-08-17T08:46:08.854Z,1004.84
2018-08-17T08:47:08.828Z,1004.81
2018-08-17T08:48:08.800Z,1004.85
2018-08-17T08:49:08.773Z,1004.87
2018-08-17T08:50:08.751Z,1004.89
2018-08-17T08:51:08.721Z,1004.93
2018-08-17T08:52:08.700Z,1004.96
2018-08-17T08:53:08.678Z,1004.95
2018-08-17T08:54:08.663Z,1004.93
2018-08-17T08:55:08.626Z,1004.97
2018-08-17T08:56:08.768Z,1004.89
2018-08-17T08:57:08.572Z,1004.96
2018-08-17T08:58:08.556Z,1004.98
2018-08-17T08:59:08.529Z,1004.99
2018-08-17T09:00:08.508Z,1004.91
2018-08-17T09:01:08.478Z,1004.93
2018-08-17T09:02:08.452Z,1004.97
2018-08-17T09:03:08.428Z,1004.91
2018-08-17T09:04:08.405Z,1005.00
2018-08-17T09:05:08.374Z,1004.99
2018-08-17T09:06:08.358Z,1005.04
2018-08-17T09:07:08.327Z,1004.99
2018-08-17T09:08:08.313Z,1005.03
2018-08-17T09:09:08.271Z,1005.01
2018-08-17T09:10:08.256Z,1004.98
2018-08-17T09:11:08.225Z,1005.03
2018-08-17T09:12:08.234Z,1004.98
2018-08-17T09:13:08.179Z,1005.02
2018-08-17T09:14:08.146Z,1005.07
2018-08-17T09:15:08.127Z,1005.05
2018-08-17T09:16:08.102Z,1005.11
2018-08-17T09:17:08.075Z,1005.12
2018-08-17T09:18:08.048Z,1005.11
2018-08-17T09:19:08.028Z,1005.09
2018-08-17T09:20:08.048Z,1005.10
2018-08-17T09:21:07.978Z,1005.12
2018-08-17T09:22:07.948Z,1005.17
2018-08-17T09:23:07.929Z,1005.14
2018-08-17T09:24:07.900Z,1005.10
2018-08-17T09:25:07.896Z,1005.16
2018-08-17T09:26:07.849Z,1005.14
2018-08-17T09:27:07.824Z,1005.22
2018-08-17T09:28:07.796Z,1005.21
2018-08-17T09:29:07.828Z,1005.22
2018-08-17T09:30:07.854Z,1005.21
2018-08-17T09:31:07.721Z,1005.21
2018-08-17T09:32:07.701Z,1005.23
2018-08-17T09:33:07.672Z,1005.21
2018-08-17T09:34:07.652Z,1005.27
2018-08-17T09:35:07.618Z,1005.21
2018-08-17T09:36:07.674Z,1005.22
2018-08-17T09:37:07.568Z,1005.28
2018-08-17T09:38:07.554Z,1005.28
2018-08-17T09:39:07.518Z,1005.29
2018-08-17T09:40:07.503Z,1005.29
2018-08-17T09:41:07.468Z,1005.27
2018-08-17T09:42:07.545Z,1005.30
2018-08-17T09:43:07.424Z,1005.24
2018-08-17T09:44:07.400Z,1005.22
2018-08-17T09:45:07.373Z,1005.22
2018-08-17T09:46:07.350Z,1005.23
2018-08-17T09:47:07.322Z,1005.27
2018-08-17T09:48:07.295Z,1005.24
2018-08-17T09:49:07.273Z,1005.24
2018-08-17T09:50:07.252Z,1005.25
2018-08-17T09:51:07.227Z,1005.27
2018-08-17T09:52:07.199Z,1005.24
2018-08-17T09:53:07.175Z,1005.24
2018-08-17T09:54:07.158Z,1005.25
2018-08-17T09:55:07.128Z,1005.22
2018-08-17T09:56:07.093Z,1005.23
2018-08-17T09:57:07.117Z,1005.23
2018-08-17T09:58:07.050Z,1005.23
2018-08-17T09:59:07.020Z,1005.25
2018-08-17T10:00:07.001Z,1005.24
2018-08-17T10:01:06.976Z,1005.23
2018-08-17T10:02:06.947Z,1005.20
2018-08-17T10:03:06.926Z,1005.18
2018-08-17T10:04:06.970Z,1005.21
2018-08-17T10:05:06.873Z,1005.20
2018-08-17T10:06:06.852Z,1005.22
2018-08-17T10:07:06.826Z,1005.23
2018-08-17T10:08:06.805Z,1005.25
2018-08-17T10:09:06.770Z,1005.26
2018-08-17T10:10:06.755Z,1005.28
2018-08-17T10:11:06.726Z,1005.29
2018-08-17T10:12:06.699Z,1005.27
2018-08-17T10:13:06.672Z,1005.31
2018-08-17T10:14:06.659Z,1005.32
2018-08-17T10:15:06.631Z,1005.29
2018-08-17T10:16:06.603Z,1005.33
2018-08-17T10:17:06.581Z,1005.32
2018-08-17T10:18:06.549Z,1005.30
2018-08-17T10:19:06.533Z,1005.36
2018-08-17T10:20:06.503Z,1005.35
2018-08-17T10:21:06.602Z,1005.33
2018-08-17T10:22:06.879Z,1005.35
2018-08-17T10:23:06.445Z,1005.32
2018-08-17T10:24:06.399Z,1005.33
2018-08-17T10:25:06.374Z,1005.32
2018-08-17T10:26:06.356Z,1005.34
2018-08-17T10:27:06.326Z,1005.40
2018-08-17T10:28:06.303Z,1005.40
2018-08-17T10:29:06.284Z,1005.42
2018-08-17T10:30:06.248Z,1005.44
2018-08-17T10:31:06.223Z,1005.49
2018-08-17T10:32:06.200Z,1005.47
2018-08-17T10:33:06.171Z,1005.50
2018-08-17T10:34:06.245Z,1005.53
2018-08-17T10:35:06.125Z,1005.52
2018-08-17T10:36:06.099Z,1005.50
2018-08-17T10:37:06.070Z,1005.51
2018-08-17T10:38:06.056Z,1005.50
2018-08-17T10:39:06.026Z,1005.48
2018-08-17T10:40:05.999Z,1005.49
2018-08-17T10:41:05.971Z,1005.50
2018-08-17T10:42:05.945Z,1005.44
2018-08-17T10:43:05.932Z,1005.48
2018-08-17T10:44:05.899Z,1005.47
2018-08-17T10:45:05.877Z,1005.48
2018-08-17T10:46:05.851Z,1005.49
2018-08-17T10:47:05.823Z,1005.50
2018-08-17T10:48:05.796Z,1005.53
2018-08-17T10:49:05.827Z,1005.48
2018-08-17T10:50:05.757Z,1005.52
2018-08-17T10:51:05.726Z,1005.53
2018-08-17T10:52:05.693Z,1005.56
2018-08-17T10:53:05.674Z,1005.50
2018-08-17T10:54:05.641Z,1005.44
2018-08-17T10:55:05.623Z,1005.46
2018-08-17T10:56:05.603Z,1005.47
2018-08-17T10:57:05.574Z,1005.39
2018-08-17T10:58:05.552Z,1005.41
2018-08-17T10:59:05.526Z,1005.38
2018-08-17T11:00:05.495Z,1005.39
2018-08-17T11:01:05.470Z,1005.41
2018-08-17T11:02:05.453Z,1005.43
2018-08-17T11:03:05.428Z,1005.46
2018-08-17T11:04:05.394Z,1005.46
2018-08-17T11:05:05.376Z,1005.47
2018-08-17T11:06:05.372Z,1005.48
2018-08-17T11:07:05.324Z,1005.45
2018-08-17T11:08:05.300Z,1005.50
2018-08-17T11:09:05.279Z,1005.50
2018-08-17T11:10:05.252Z,1005.48
2018-08-17T11:11:05.275Z,1005.49
2018-08-17T11:12:05.196Z,1005.47
2018-08-17T11:13:05.180Z,1005.52
2018-08-17T11:14:05.154Z,1005.54
2018-08-17T11:15:05.124Z,1005.54
2018-08-17T11:16:05.104Z,1005.56
2018-08-17T11:17:05.181Z,1005.56
2018-08-17T11:18:05.048Z,1005.58
2018-08-17T11:19:05.022Z,1005.57
2018-08-17T11:20:05.007Z,1005.54
2018-08-17T11:21:04.982Z,1005.50
2018-08-17T11:22:04.954Z,1005.56
2018-08-17T11:23:04.926Z,1005.56
2018-08-17T11:24:04.909Z,1005.60
2018-08-17T11:25:04.887Z,1005.63
2018-08-17T11:26:04.856Z,1005.62
2018-08-17T11:27:04.832Z,1005.60
2018-08-17T11:28:04.808Z,1005.58
2018-08-17T11:29:04.778Z,1005.58
2018-08-17T11:30:04.762Z,1005.61
2018-08-17T11:31:04.735Z,1005.62
2018-08-17T11:32:04.707Z,1005.61
2018-08-17T11:33:04.682Z,1005.63
2018-08-17T11:34:04.661Z,1005.67
2018-08-17T11:35:04.632Z,1005.61
2018-08-17T11:36:04.612Z,1005.65
2018-08-17T11:37:04.607Z,1005.63
2018-08-17T11:38:04.560Z,1005.61
2018-08-17T11:39:04.540Z,1005.68
2018-08-17T11:40:04.516Z,1005.66
2018-08-17T11:41:04.483Z,1005.71
2018-08-17T11:42:04.462Z,1005.72
2018-08-17T11:43:04.439Z,1005.71
2018-08-17T11:44:04.406Z,1005.76
2018-08-17T11:45:04.393Z,1005.80
2018-08-17T11:46:04.356Z,1005.82
2018-08-17T11:47:04.339Z,1005.82
2018-08-17T11:48:04.356Z,1005.84
2018-08-17T11:49:04.293Z,1005.81
2018-08-17T11:50:04.259Z,1005.84
2018-08-17T11:51:04.239Z,1005.82
2018-08-17T11:52:04.215Z,1005.86
2018-08-17T11:53:04.184Z,1005.87
2018-08-17T11:54:04.197Z,1005.93
2018-08-17T11:55:04.224Z,1005.90
2018-08-17T11:56:04.113Z,1005.90
2018-08-17T11:57:04.093Z,1005.91
2018-08-17T11:58:04.078Z,1005.91
2018-08-17T11:59:04.041Z,1005.94
2018-08-17T12:00:04.021Z,1005.93
2018-08-17T12:01:04.024Z,1006.01
2018-08-17T12:02:03.966Z,1005.94
2018-08-17T12:03:03.945Z,1005.93
2018-08-17T12:04:03.918Z,1005.96
2018-08-17T12:05:03.889Z,1005.95